createdAt,value
2023-05-21T00:00:51.806Z,99.90
2023-05-21T00:03:18.546Z,99.90
2023-05-21T00:05:45.379Z,99.90
2023-05-21T00:08:13.127Z,99.90
2023-05-21T00:10:39.796Z,99.90
2023-05-21T00:13:06.734Z,99.90
2023-05-21T00:15:33.433Z,99.90
2023-05-21T00:18:00.244Z,99.90
2023-05-21T00:20:26.953Z,99.90
2023-05-21T00:22:53.598Z,99.90
2023-05-21T00:25:20.554Z,99.90
2023-05-21T00:27:47.317Z,99.90
2023-05-21T00:30:16.512Z,99.90
2023-05-21T00:32:43.834Z,99.90
2023-05-21T00:35:10.490Z,99.90
2023-05-21T00:37:37.152Z,99.90
2023-05-21T00:40:06.425Z,99.90
2023-05-21T00:42:33.051Z,99.90
2023-05-21T00:44:59.663Z,99.90
2023-05-21T00:47:26.288Z,99.90
2023-05-21T00:49:52.939Z,99.90
2023-05-21T00:52:19.579Z,99.90
2023-05-21T00:54:46.208Z,99.90
2023-05-21T00:57:12.927Z,99.90
2023-05-21T00:59:39.521Z,99.90
2023-05-21T01:02:06.195Z,99.90
2023-05-21T01:04:33.748Z,99.90
2023-05-21T01:07:00.382Z,99.90
2023-05-21T01:09:26.982Z,99.90
2023-05-21T01:11:53.613Z,99.90
2023-05-21T01:14:20.244Z,99.90
2023-05-21T01:16:47.041Z,99.90
2023-05-21T01:19:15.583Z,99.90
2023-05-21T01:21:42.394Z,99.90
2023-05-21T01:24:09.011Z,99.90
2023-05-21T01:26:38.022Z,99.90
2023-05-21T01:29:04.651Z,99.90
2023-05-21T01:31:31.269Z,99.90
2023-05-21T01:33:57.996Z,99.90
2023-05-21T01:36:24.786Z,99.90
2023-05-21T01:38:51.430Z,99.90
2023-05-21T01:41:18.044Z,99.90
2023-05-21T01:43:44.679Z,99.90
2023-05-21T01:46:12.452Z,99.90
2023-05-21T01:48:39.062Z,99.90
2023-05-21T01:51:05.699Z,99.90
2023-05-21T01:53:32.431Z,99.90
2023-05-21T01:55:59.224Z,99.90
2023-05-21T01:58:25.881Z,99.90
2023-05-21T02:00:52.685Z,99.90
2023-05-21T02:03:20.086Z,99.90
2023-05-21T02:05:46.773Z,99.90
2023-05-21T02:08:14.204Z,99.90
2023-05-21T02:10:40.833Z,99.90
2023-05-21T02:13:08.964Z,99.90
2023-05-21T02:15:39.075Z,99.90
2023-05-21T02:18:05.745Z,99.90
2023-05-21T02:20:32.387Z,99.90
2023-05-21T02:22:59.027Z,99.90
2023-05-21T02:25:25.641Z,99.90
2023-05-21T02:27:52.426Z,99.90
2023-05-21T02:30:21.342Z,99.90
2023-05-21T02:32:49.206Z,99.90
2023-05-21T02:35:15.890Z,99.90
2023-05-21T02:37:42.542Z,99.90
2023-05-21T02:40:09.158Z,99.90
2023-05-21T02:42:37.854Z,99.90
2023-05-21T02:45:04.445Z,99.90
2023-05-21T02:47:31.233Z,99.90
2023-05-21T02:49:59.656Z,99.90
2023-05-21T02:52:26.311Z,99.90
2023-05-21T02:54:52.915Z,99.90
2023-05-21T02:57:19.642Z,99.90
2023-05-21T02:59:46.289Z,99.90
2023-05-21T03:02:13.079Z,99.90
2023-05-21T03:04:39.750Z,99.90
2023-05-21T03:07:06.354Z,99.90
2023-05-21T03:09:33.858Z,99.90
2023-05-21T03:12:00.491Z,99.90
2023-05-21T03:14:27.095Z,99.90
2023-05-21T03:16:53.808Z,99.90
2023-05-21T03:19:20.433Z,99.90
2023-05-21T03:21:47.275Z,99.90
2023-05-21T03:24:14.309Z,99.90
2023-05-21T03:26:40.910Z,99.90
2023-05-21T03:29:07.611Z,99.90
2023-05-21T03:31:34.279Z,99.90
2023-05-21T03:34:01.219Z,99.90
2023-05-21T03:36:27.863Z,99.90
2023-05-21T03:38:56.272Z,99.90
2023-05-21T03:41:23.796Z,99.90
2023-05-21T03:43:50.537Z,99.90
2023-05-21T03:46:17.170Z,99.90
2023-05-21T03:48:43.901Z,99.90
2023-05-21T03:51:10.499Z,99.90
2023-05-21T03:53:37.121Z,99.90
2023-05-21T03:56:03.832Z,99.90
2023-05-21T03:58:30.432Z,99.90
2023-05-21T04:00:57.063Z,99.90
2023-05-21T04:03:23.801Z,99.90
2023-05-21T04:05:50.690Z,99.90
2023-05-21T04:08:17.348Z,99.90
2023-05-21T04:10:43.977Z,99.90
2023-05-21T04:13:10.586Z,99.90
2023-05-21T04:15:37.375Z,99.90
2023-05-21T04:18:04.261Z,99.90
2023-05-21T04:20:30.899Z,99.90
2023-05-21T04:22:57.888Z,99.90
2023-05-21T04:25:24.721Z,99.90
2023-05-21T04:27:51.744Z,99.90
2023-05-21T04:30:18.392Z,99.90
2023-05-21T04:32:45.051Z,99.90
2023-05-21T04:35:11.707Z,99.90
2023-05-21T04:37:38.430Z,99.90
2023-05-21T04:40:05.075Z,99.90
2023-05-21T04:42:31.689Z,99.90
2023-05-21T04:44:58.310Z,99.90
2023-05-21T04:47:24.969Z,99.90
2023-05-21T04:49:52.727Z,99.90
2023-05-21T04:52:19.322Z,99.90
2023-05-21T04:54:45.965Z,99.90
2023-05-21T04:57:12.762Z,99.90
2023-05-21T04:59:39.390Z,99.90
2023-05-21T05:02:06.031Z,99.90
2023-05-21T05:04:32.637Z,99.90
2023-05-21T05:07:00.770Z,99.90
2023-05-21T05:09:27.362Z,99.90
2023-05-21T05:11:53.953Z,99.90
2023-05-21T05:14:20.583Z,99.90
2023-05-21T05:16:48.379Z,99.90
2023-05-21T05:19:15.172Z,99.90
2023-05-21T05:21:41.884Z,99.90
2023-05-21T05:24:08.548Z,99.90
2023-05-21T05:26:35.176Z,99.90
2023-05-21T05:29:01.781Z,99.90
2023-05-21T05:31:28.495Z,99.90
2023-05-21T05:33:55.130Z,99.90
2023-05-21T05:36:21.728Z,99.90
2023-05-21T05:38:48.410Z,99.90
2023-05-21T05:41:15.030Z,99.90
2023-05-21T05:43:41.983Z,99.90
2023-05-21T05:46:09.688Z,99.90
2023-05-21T05:48:36.305Z,99.90
2023-05-21T05:51:02.976Z,99.90
2023-05-21T05:53:29.726Z,99.90
2023-05-21T05:55:56.358Z,99.90
2023-05-21T05:58:22.956Z,99.90
2023-05-21T06:00:49.590Z,99.90
2023-05-21T06:03:16.369Z,99.90
2023-05-21T06:05:43.073Z,99.90
2023-05-21T06:08:09.730Z,99.90
2023-05-21T06:10:36.368Z,99.90
2023-05-21T06:13:03.021Z,99.90
2023-05-21T06:15:29.618Z,99.90
2023-05-21T06:17:56.254Z,99.90
2023-05-21T06:20:23.240Z,99.90
2023-05-21T06:22:49.850Z,99.90
2023-05-21T06:25:18.595Z,99.90
2023-05-21T06:27:45.221Z,99.90
2023-05-21T06:30:11.900Z,99.90
2023-05-21T06:32:38.813Z,99.90
2023-05-21T06:35:05.828Z,99.90
2023-05-21T06:37:32.430Z,99.90
2023-05-21T06:39:59.181Z,99.90
2023-05-21T06:42:25.818Z,99.90
2023-05-21T06:44:52.444Z,99.90
2023-05-21T06:47:19.067Z,99.90
2023-05-21T06:49:45.692Z,99.90
2023-05-21T06:52:12.731Z,99.90
2023-05-21T06:54:39.405Z,99.90
2023-05-21T06:57:06.512Z,99.90
2023-05-21T06:59:33.219Z,99.90
2023-05-21T07:02:00.165Z,99.90
2023-05-21T07:04:27.652Z,99.90
2023-05-21T07:06:54.255Z,99.90
2023-05-21T07:09:20.889Z,99.90
2023-05-21T07:11:47.491Z,99.90
2023-05-21T07:14:14.126Z,99.90
2023-05-21T07:16:41.879Z,99.90
2023-05-21T07:19:08.775Z,99.90
2023-05-21T07:21:35.652Z,99.90
2023-05-21T07:24:02.298Z,99.90
2023-05-21T07:26:30.117Z,99.90
2023-05-21T07:28:56.723Z,99.90
2023-05-21T07:31:23.368Z,99.90
2023-05-21T07:33:50.201Z,99.90
2023-05-21T07:36:16.890Z,99.90
2023-05-21T07:38:45.504Z,99.90
2023-05-21T07:41:12.130Z,99.90
2023-05-21T07:43:38.760Z,99.90
2023-05-21T07:46:05.469Z,99.90
2023-05-21T07:48:34.719Z,99.90
2023-05-21T07:51:02.083Z,99.90
2023-05-21T07:53:30.945Z,99.90
2023-05-21T07:55:57.566Z,99.90
2023-05-21T07:58:24.205Z,99.90
2023-05-21T08:00:50.811Z,99.90
2023-05-21T08:03:17.666Z,99.90
2023-05-21T08:05:44.337Z,99.90
2023-05-21T08:08:10.981Z,99.90
2023-05-21T08:10:37.618Z,99.90
2023-05-21T08:13:04.236Z,99.90
2023-05-21T08:15:30.865Z,99.90
2023-05-21T08:17:57.623Z,99.90
2023-05-21T08:20:24.308Z,99.90
2023-05-21T08:22:52.339Z,99.90
2023-05-21T08:25:19.020Z,99.90
2023-05-21T08:27:45.665Z,99.90
2023-05-21T08:30:12.366Z,99.90
2023-05-21T08:32:39.020Z,99.90
2023-05-21T08:35:06.378Z,99.90
2023-05-21T08:37:33.018Z,99.90
2023-05-21T08:39:59.640Z,99.90
2023-05-21T08:42:36.197Z,99.90
2023-05-21T08:45:04.668Z,99.90
2023-05-21T08:47:31.377Z,99.90
2023-05-21T08:49:58.006Z,99.90
2023-05-21T08:52:24.629Z,99.90
2023-05-21T08:54:51.740Z,99.90
2023-05-21T08:57:18.388Z,99.90
2023-05-21T08:59:45.360Z,99.90
2023-05-21T09:02:12.055Z,99.90
2023-05-21T09:04:38.857Z,99.90
2023-05-21T09:07:05.834Z,99.90
2023-05-21T09:09:32.437Z,99.90
2023-05-21T09:11:59.061Z,99.90
2023-05-21T09:14:25.675Z,99.90
2023-05-21T09:16:52.363Z,99.90
2023-05-21T09:19:19.277Z,99.90
2023-05-21T09:21:45.910Z,99.90
2023-05-21T09:24:12.664Z,99.90
2023-05-21T09:26:39.364Z,99.90
2023-05-21T09:29:05.999Z,99.90
2023-05-21T09:31:33.173Z,99.90
2023-05-21T09:33:59.871Z,99.90
2023-05-21T09:36:26.516Z,99.90
2023-05-21T09:38:53.728Z,99.90
2023-05-21T09:41:22.203Z,99.90
2023-05-21T09:43:49.302Z,99.90
2023-05-21T09:46:15.999Z,99.90
2023-05-21T09:48:42.832Z,99.90
2023-05-21T09:51:09.452Z,99.90
2023-05-21T09:53:36.131Z,99.90
2023-05-21T09:56:02.815Z,99.90
2023-05-21T09:58:29.448Z,99.90
2023-05-21T10:00:56.149Z,99.90
2023-05-21T10:03:22.807Z,99.90
2023-05-21T10:05:51.834Z,99.90
2023-05-21T10:08:18.487Z,99.90
2023-05-21T10:10:45.105Z,99.90
2023-05-21T10:13:11.944Z,99.90
2023-05-21T10:15:38.853Z,99.90
2023-05-21T10:18:06.577Z,99.90
2023-05-21T10:20:33.370Z,99.90
2023-05-21T10:23:00.005Z,99.90
2023-05-21T10:25:26.644Z,99.90
2023-05-21T10:27:53.267Z,99.90
2023-05-21T10:30:19.894Z,99.90
2023-05-21T10:32:46.732Z,99.90
2023-05-21T10:35:13.479Z,99.90
2023-05-21T10:37:40.106Z,99.90
2023-05-21T10:40:06.720Z,99.90
2023-05-21T10:42:33.362Z,99.90
2023-05-21T10:45:00.096Z,99.90
2023-05-21T10:47:26.880Z,99.90
2023-05-21T10:49:53.675Z,99.90
2023-05-21T10:52:20.281Z,98.90
2023-05-21T10:54:46.939Z,99.50
2023-05-21T10:57:17.352Z,99.90
2023-05-21T10:59:44.905Z,98.30
2023-05-21T11:02:12.591Z,99.20
2023-05-21T11:04:39.277Z,98.70
2023-05-21T11:07:05.890Z,97.40
2023-05-21T11:09:32.523Z,99.90
2023-05-21T11:11:59.157Z,99.90
2023-05-21T11:14:25.842Z,99.90
2023-05-21T11:16:52.751Z,97.80
2023-05-21T11:19:19.467Z,99.90
2023-05-21T11:21:46.139Z,98.80
2023-05-21T11:24:12.742Z,97.70
2023-05-21T11:26:39.383Z,98.40
2023-05-21T11:29:06.255Z,97.00
2023-05-21T11:31:33.264Z,97.00
2023-05-21T11:33:59.907Z,99.00
2023-05-21T11:36:26.498Z,99.00
2023-05-21T11:38:53.154Z,99.00
2023-05-21T11:41:19.767Z,99.80
2023-05-21T11:43:46.429Z,99.90
2023-05-21T11:46:13.199Z,98.20
2023-05-21T11:48:39.855Z,98.50
2023-05-21T11:51:06.450Z,98.40
2023-05-21T11:53:33.088Z,98.70
2023-05-21T11:55:59.708Z,99.20
2023-05-21T11:58:26.341Z,99.70
2023-05-21T12:00:52.977Z,99.50
2023-05-21T12:03:19.686Z,98.80
2023-05-21T12:05:46.533Z,99.10
2023-05-21T12:08:13.230Z,99.70
2023-05-21T12:10:39.866Z,99.90
2023-05-21T12:13:06.466Z,99.20
2023-05-21T12:15:33.096Z,98.30
2023-05-21T12:17:59.814Z,97.00
2023-05-21T12:20:26.515Z,98.50
2023-05-21T12:22:53.138Z,98.80
2023-05-21T12:25:19.773Z,98.80
2023-05-21T12:27:46.421Z,99.00
2023-05-21T12:30:13.083Z,99.70
2023-05-21T12:32:39.690Z,99.90
2023-05-21T12:35:06.401Z,98.00
2023-05-21T12:37:33.806Z,98.30
2023-05-21T12:40:00.961Z,98.60
2023-05-21T12:42:27.609Z,97.80
2023-05-21T12:44:54.250Z,97.30
2023-05-21T12:47:20.910Z,96.80
2023-05-21T12:49:47.543Z,98.20
2023-05-21T12:52:14.486Z,97.20
2023-05-21T12:54:41.113Z,97.00
2023-05-21T12:57:07.743Z,95.30
2023-05-21T12:59:34.389Z,96.80
2023-05-21T13:02:01.064Z,97.00
2023-05-21T13:04:27.714Z,98.40
2023-05-21T13:06:54.363Z,97.60
2023-05-21T13:09:21.015Z,96.70
2023-05-21T13:11:47.611Z,95.90
2023-05-21T13:14:14.255Z,95.40
2023-05-21T13:16:40.957Z,93.60
2023-05-21T13:19:07.936Z,95.20
2023-05-21T13:21:34.548Z,94.20
2023-05-21T13:24:01.216Z,94.00
2023-05-21T13:26:27.951Z,92.70
2023-05-21T13:28:55.804Z,95.50
2023-05-21T13:31:30.278Z,95.20
2023-05-21T13:33:57.223Z,93.80
2023-05-21T13:36:24.123Z,92.70
2023-05-21T13:38:50.756Z,93.70
2023-05-21T13:41:17.373Z,92.80
2023-05-21T13:43:43.985Z,92.00
2023-05-21T13:46:10.640Z,91.80
2023-05-21T13:48:37.271Z,93.70
2023-05-21T13:51:04.123Z,92.60
2023-05-21T13:53:30.769Z,90.60
2023-05-21T13:55:57.389Z,90.60
2023-05-21T13:58:24.036Z,92.00
2023-05-21T14:00:50.698Z,87.30
2023-05-21T14:03:17.364Z,90.20
2023-05-21T14:05:44.012Z,90.50
2023-05-21T14:08:11.070Z,90.20
2023-05-21T14:10:38.060Z,90.50
2023-05-21T14:13:18.376Z,90.70
2023-05-21T14:15:46.883Z,91.20
2023-05-21T14:18:13.528Z,90.00
2023-05-21T14:20:41.619Z,92.00
2023-05-21T14:23:08.231Z,91.80
2023-05-21T14:25:35.082Z,92.30
2023-05-21T14:28:02.010Z,91.10
2023-05-21T14:30:28.631Z,91.20
2023-05-21T14:32:57.798Z,92.40
2023-05-21T14:35:24.625Z,92.20
2023-05-21T14:37:51.764Z,90.50
2023-05-21T14:40:18.562Z,89.70
2023-05-21T14:42:45.560Z,90.60
2023-05-21T14:45:19.108Z,90.70
2023-05-21T14:47:46.187Z,90.20
2023-05-21T14:50:12.861Z,90.00
2023-05-21T14:52:39.511Z,90.00
2023-05-21T14:55:06.109Z,87.30
2023-05-21T14:57:32.748Z,89.90
2023-05-21T14:59:59.352Z,90.80
2023-05-21T15:02:26.064Z,88.90
2023-05-21T15:04:52.857Z,88.90
2023-05-21T15:07:19.597Z,88.40
2023-05-21T15:09:46.618Z,89.10
2023-05-21T15:12:13.626Z,90.90
2023-05-21T15:14:40.254Z,87.10
2023-05-21T15:17:06.862Z,88.10
2023-05-21T15:19:33.647Z,86.90
2023-05-21T15:22:01.148Z,87.30
2023-05-21T15:24:27.772Z,90.10
2023-05-21T15:26:54.402Z,90.50
2023-05-21T15:29:21.055Z,86.50
2023-05-21T15:31:49.274Z,86.90
2023-05-21T15:34:15.905Z,88.70
2023-05-21T15:36:42.553Z,88.40
2023-05-21T15:39:09.171Z,88.40
2023-05-21T15:41:35.779Z,88.30
2023-05-21T15:44:02.558Z,90.00
2023-05-21T15:46:29.202Z,89.50
2023-05-21T15:48:55.842Z,90.00
2023-05-21T15:51:22.476Z,91.10
2023-05-21T15:53:49.131Z,91.40
2023-05-21T15:56:16.479Z,91.30
2023-05-21T15:58:43.187Z,92.10
2023-05-21T16:01:09.870Z,91.80
2023-05-21T16:03:36.559Z,92.10
2023-05-21T16:06:03.190Z,93.30
2023-05-21T16:08:29.813Z,94.00
2023-05-21T16:10:56.589Z,93.80
2023-05-21T16:13:23.217Z,94.50
2023-05-21T16:15:49.852Z,94.50
2023-05-21T16:18:16.826Z,94.60
2023-05-21T16:20:43.488Z,95.00
2023-05-21T16:23:10.091Z,94.20
2023-05-21T16:25:37.111Z,95.50
2023-05-21T16:28:04.072Z,96.00
2023-05-21T16:30:30.698Z,95.80
2023-05-21T16:32:57.380Z,95.70
2023-05-21T16:35:26.574Z,95.90
2023-05-21T16:37:53.219Z,96.00
2023-05-21T16:40:19.878Z,95.40
2023-05-21T16:42:46.500Z,96.00
2023-05-21T16:45:13.143Z,96.50
2023-05-21T16:47:40.121Z,95.80
2023-05-21T16:50:06.810Z,95.90
2023-05-21T16:52:33.466Z,96.50
2023-05-21T16:55:00.078Z,95.90
2023-05-21T16:57:27.861Z,95.50
2023-05-21T16:59:54.549Z,96.00
2023-05-21T17:02:21.245Z,95.60
2023-05-21T17:04:47.931Z,94.50
2023-05-21T17:07:14.576Z,93.90
2023-05-21T17:09:41.190Z,93.20
2023-05-21T17:12:07.801Z,93.20
2023-05-21T17:14:35.781Z,95.00
2023-05-21T17:17:03.357Z,95.20
2023-05-21T17:19:30.147Z,95.30
2023-05-21T17:21:56.870Z,95.70
2023-05-21T17:24:23.500Z,94.70
2023-05-21T17:26:50.144Z,95.50
2023-05-21T17:29:16.792Z,95.40
2023-05-21T17:31:43.547Z,95.90
2023-05-21T17:34:10.570Z,96.30
2023-05-21T17:36:37.168Z,96.40
2023-05-21T17:39:06.134Z,96.20
2023-05-21T17:41:36.058Z,96.20
2023-05-21T17:44:02.733Z,96.10
2023-05-21T17:46:29.406Z,96.30
2023-05-21T17:48:56.081Z,96.80
2023-05-21T17:51:22.773Z,96.70
2023-05-21T17:53:49.464Z,96.60
2023-05-21T17:56:16.091Z,97.30
2023-05-21T17:58:43.883Z,97.00
2023-05-21T18:01:10.503Z,97.20
2023-05-21T18:03:37.209Z,97.50
2023-05-21T18:06:03.846Z,97.30
2023-05-21T18:08:31.836Z,98.30
2023-05-21T18:10:58.450Z,98.10
2023-05-21T18:13:25.095Z,98.60
2023-05-21T18:15:52.104Z,98.80
2023-05-21T18:18:21.465Z,99.10
2023-05-21T18:20:48.351Z,99.10
2023-05-21T18:23:14.959Z,99.10
2023-05-21T18:25:41.602Z,99.90
2023-05-21T18:28:08.246Z,99.50
2023-05-21T18:30:35.179Z,99.70
2023-05-21T18:33:02.123Z,99.90
2023-05-21T18:35:28.825Z,99.90
2023-05-21T18:37:55.542Z,99.90
2023-05-21T18:40:22.203Z,99.90
2023-05-21T18:42:48.811Z,99.90
2023-05-21T18:45:15.460Z,99.90
2023-05-21T18:47:43.177Z,99.90
2023-05-21T18:50:09.890Z,99.90
2023-05-21T18:52:36.497Z,99.90
2023-05-21T18:55:03.120Z,99.90
2023-05-21T18:57:29.716Z,99.90
2023-05-21T18:59:57.043Z,99.90
2023-05-21T19:02:25.057Z,99.90
2023-05-21T19:04:51.720Z,99.90
2023-05-21T19:07:18.379Z,99.90
2023-05-21T19:09:45.073Z,99.90
2023-05-21T19:12:11.871Z,99.90
2023-05-21T19:14:38.522Z,99.90
2023-05-21T19:17:05.179Z,99.90
2023-05-21T19:19:31.915Z,99.90
2023-05-21T19:21:58.626Z,99.90
2023-05-21T19:24:25.239Z,99.90
2023-05-21T19:26:51.896Z,99.90
2023-05-21T19:29:18.558Z,99.90
2023-05-21T19:31:45.313Z,99.90
2023-05-21T19:34:11.985Z,99.90
2023-05-21T19:36:52.115Z,99.90
2023-05-21T19:39:19.897Z,99.90
2023-05-21T19:41:46.630Z,99.90
2023-05-21T19:44:13.270Z,99.90
2023-05-21T19:46:39.896Z,99.90
2023-05-21T19:49:06.536Z,99.90
2023-05-21T19:51:35.461Z,99.90
2023-05-21T19:54:02.121Z,99.90
2023-05-21T19:56:28.745Z,99.90
2023-05-21T19:58:55.349Z,99.90
2023-05-21T20:01:22.071Z,99.90
2023-05-21T20:03:48.755Z,99.90
2023-05-21T20:06:15.460Z,99.90
2023-05-21T20:08:42.156Z,99.90
2023-05-21T20:11:08.902Z,99.90
2023-05-21T20:13:35.495Z,99.90
2023-05-21T20:16:02.133Z,99.90
2023-05-21T20:18:29.081Z,99.90
2023-05-21T20:20:55.725Z,99.90
2023-05-21T20:23:22.349Z,99.90
2023-05-21T20:25:48.987Z,99.90
2023-05-21T20:28:15.612Z,99.90
2023-05-21T20:30:42.284Z,99.90
2023-05-21T20:33:08.935Z,99.90
2023-05-21T20:35:35.544Z,99.90
2023-05-21T20:38:02.382Z,99.90
2023-05-21T20:40:29.027Z,99.90
2023-05-21T20:42:55.619Z,99.90
2023-05-21T20:45:22.642Z,99.90
2023-05-21T20:47:49.299Z,99.90
2023-05-21T20:50:16.139Z,99.90
2023-05-21T20:52:44.496Z,99.90
2023-05-21T20:55:12.992Z,99.90
2023-05-21T20:57:39.586Z,99.90
2023-05-21T21:00:06.209Z,99.90
2023-05-21T21:02:32.922Z,99.90
2023-05-21T21:04:59.598Z,99.90
2023-05-21T21:07:26.258Z,99.90
2023-05-21T21:09:53.192Z,99.90
2023-05-21T21:12:25.207Z,99.90
2023-05-21T21:14:52.939Z,99.90
2023-05-21T21:17:19.626Z,99.90
2023-05-21T21:19:46.316Z,99.90
2023-05-21T21:22:13.169Z,99.90
2023-05-21T21:24:39.793Z,99.90
2023-05-21T21:27:07.664Z,99.90
2023-05-21T21:29:34.289Z,99.90
2023-05-21T21:32:00.878Z,99.90
2023-05-21T21:34:27.516Z,99.90
2023-05-21T21:39:38.730Z,99.90
2023-05-21T21:42:05.364Z,99.90
2023-05-21T21:44:32.000Z,99.90
2023-05-21T21:46:59.424Z,99.90
2023-05-21T21:49:26.617Z,99.90
2023-05-21T21:51:53.545Z,99.90
2023-05-21T21:54:20.221Z,99.90
2023-05-21T21:56:47.237Z,99.90
2023-05-21T21:59:13.873Z,99.90
2023-05-21T22:01:40.787Z,99.90
2023-05-21T22:04:07.503Z,99.90
2023-05-21T22:06:34.633Z,99.90
2023-05-21T22:09:01.406Z,99.90
2023-05-21T22:11:28.069Z,99.90
2023-05-21T22:13:54.693Z,99.90
2023-05-21T22:16:21.637Z,99.90
2023-05-21T22:18:48.263Z,99.90
2023-05-21T22:21:14.898Z,99.90
2023-05-21T22:23:41.519Z,99.90
2023-05-21T22:26:08.158Z,99.90
2023-05-21T22:28:34.822Z,99.90
2023-05-21T22:31:01.956Z,99.90
2023-05-21T22:33:28.635Z,99.90
2023-05-21T22:35:55.412Z,99.90
2023-05-21T22:38:22.081Z,99.90
2023-05-21T22:40:48.700Z,99.90
2023-05-21T22:43:15.354Z,99.90
2023-05-21T22:45:41.997Z,99.90
2023-05-21T22:48:08.667Z,99.90
2023-05-21T22:50:35.343Z,99.90
2023-05-21T22:53:01.999Z,99.90
2023-05-21T22:55:28.637Z,99.90
2023-05-21T22:57:55.282Z,99.90
2023-05-21T23:00:21.951Z,99.90
2023-05-21T23:02:49.151Z,99.90
2023-05-21T23:05:16.451Z,99.90
2023-05-21T23:07:43.125Z,99.90
2023-05-21T23:10:09.752Z,99.90
2023-05-21T23:12:36.367Z,99.90
2023-05-21T23:15:02.994Z,99.90
2023-05-21T23:17:29.640Z,99.90
2023-05-21T23:19:56.314Z,99.90
2023-05-21T23:22:23.899Z,99.90
2023-05-21T23:24:51.340Z,99.90
2023-05-21T23:27:18.078Z,99.90
2023-05-21T23:29:46.749Z,99.90
2023-05-21T23:32:13.510Z,99.90
2023-05-21T23:34:40.159Z,99.90
2023-05-21T23:37:06.780Z,99.90
2023-05-21T23:39:33.403Z,99.90
2023-05-21T23:42:00.137Z,99.90
2023-05-21T23:44:26.840Z,99.90
2023-05-21T23:46:53.475Z,99.90
2023-05-21T23:49:20.289Z,99.90
2023-05-21T23:51:46.894Z,99.90
2023-05-21T23:54:13.517Z,99.90
2023-05-21T23:56:40.300Z,99.90
2023-05-21T23:59:06.922Z,99.90
